Quick Links (Output Below):   Max & Min Temps   /   Climate Reports   /   Zone Forecasts
River Forecasts   /   Forestry Forecasts   /   Aviation Forecasts   /   Radars   /   Features

Terminal Aerodrome Forecast (Little Rock)

Pick a Site:
Arkadelphia | El Dorado | Fayetteville | Fort Smith | Harrison | Highfill | Hot Springs | Jonesboro
Little Rock | Monticello | Mountain Home | Pine Bluff | Texarkana
 Forecast 

KLIT 252336Z 2600/2624 24003KT P6SM SKC
     FM260800 00000KT 4SM BR SKC
      TEMPO 2610/2613 1SM BR BKN005
     FM261400 21008KT P6SM SKC=


 Latest METARs (Observations) 
How to Decode METARs
04Z KLIT 260353Z 24003KT 9SM CLR 21/17 A3003 RMK AO2 SLP170
         T02060172
         
03Z KLIT 260253Z 24006KT 10SM CLR 22/18 A3003 RMK AO2 SLP171 T02170178
         51003
         
02Z KLIT 260153Z 24006KT 10SM CLR 22/18 A3003 RMK AO2 SLP170
         T02220178
         
01Z KLIT 260053Z 22007KT 10SM CLR 24/18 A3003 RMK AO2 SLP170
         T02390178
         
00Z KLIT 252353Z 23006KT 10SM CLR 24/18 A3002 RMK AO2 SLP167 T02440178
         10306 20244 53001
         
***** Today's Observations (Above) *****


23Z KLIT 252253Z 22005KT 10SM CLR 28/17 A3002 RMK AO2 SLP166
         T02780172
         
22Z KLIT 252153Z 24007KT 10SM CLR 29/17 A3002 RMK AO2 SLP166
         T02940167
         
21Z KLIT 252053Z 23009KT 10SM FEW050 30/17 A3002 RMK AO2 SLP167
         T03000167 56019
         
20Z KLIT 251953Z 23006KT 10SM CLR 30/16 A3003 RMK AO2 SLP170
         T03000161
         
19Z KLIT 251853Z 23007KT 10SM CLR 29/17 A3005 RMK AO2 SLP175
         T02940167
         
***** Yesterday's Observations (Above) *****


Back to Main Page
http://www.srh.noaa.gov/lzk/qfcst.php

USA.gov is the U.S. government's official web portal to all federal, state and local government web resources and services.